createdAt,value
2018-03-18T00:01:48.171Z,97557.42
2018-03-18T00:04:16.472Z,97563.45
2018-03-18T00:06:44.897Z,97553.20
2018-03-18T00:09:13.235Z,97557.92
2018-03-18T00:11:42.091Z,97562.43
2018-03-18T00:14:10.424Z,97566.95
2018-03-18T00:16:38.699Z,97558.05
2018-03-18T00:19:07.020Z,97569.92
2018-03-18T00:21:35.306Z,97569.52
2018-03-18T00:24:03.589Z,97571.00
2018-03-18T00:26:31.909Z,97570.86
2018-03-18T00:29:00.182Z,97561.98
2018-03-18T00:31:28.519Z,97569.25
2018-03-18T00:33:56.776Z,97560.98
2018-03-18T00:36:25.064Z,97567.80
2018-03-18T00:38:53.340Z,97564.86
2018-03-18T00:41:21.677Z,97575.28
2018-03-18T00:43:49.980Z,97571.01
2018-03-18T00:46:18.259Z,97569.44
2018-03-18T00:48:46.564Z,97571.45
2018-03-18T00:51:26.512Z,97572.65
2018-03-18T00:53:54.793Z,97568.88
2018-03-18T00:56:23.086Z,97565.93
2018-03-18T00:58:51.389Z,97573.66
2018-03-18T01:01:19.683Z,97573.47
2018-03-18T01:03:47.979Z,97569.01
2018-03-18T01:06:16.298Z,97562.41
2018-03-18T01:08:44.698Z,97560.84
2018-03-18T01:11:12.983Z,97561.05
2018-03-18T01:13:41.285Z,97564.59
2018-03-18T01:16:09.576Z,97567.02
2018-03-18T01:18:37.842Z,97559.23
2018-03-18T01:21:06.151Z,97561.37
2018-03-18T01:23:34.463Z,97563.70
2018-03-18T01:26:02.756Z,97565.43
2018-03-18T01:28:31.047Z,97557.55
2018-03-18T01:30:59.352Z,97555.99
2018-03-18T01:33:27.625Z,97555.05
2018-03-18T01:35:55.992Z,97559.67
2018-03-18T01:38:24.269Z,97557.44
2018-03-18T01:40:52.575Z,97552.59
2018-03-18T01:43:20.882Z,97546.72
2018-03-18T01:45:49.188Z,97549.31
2018-03-18T01:48:17.485Z,97553.59
2018-03-18T01:50:45.822Z,97546.27
2018-03-18T01:53:21.783Z,97543.91
2018-03-18T01:55:50.094Z,97546.33
2018-03-18T01:58:18.380Z,97536.91
2018-03-18T02:00:46.642Z,97542.04
2018-03-18T02:03:14.934Z,97541.27
2018-03-18T02:05:43.187Z,97538.08
2018-03-18T02:08:11.480Z,97537.73
2018-03-18T02:10:39.788Z,97534.70
2018-03-18T02:13:08.068Z,97535.42
2018-03-18T02:15:36.403Z,97528.54
2018-03-18T02:18:05.088Z,97525.86
2018-03-18T02:20:33.410Z,97526.34
2018-03-18T02:23:01.739Z,97522.08
2018-03-18T02:25:30.019Z,97525.54
2018-03-18T02:27:58.310Z,97525.52
2018-03-18T02:30:26.613Z,97511.94
2018-03-18T02:32:54.883Z,97532.17
2018-03-18T02:35:23.223Z,97519.14
2018-03-18T02:37:51.492Z,97521.39
2018-03-18T02:40:19.783Z,97525.37
2018-03-18T02:42:48.053Z,97517.34
2018-03-18T02:45:16.600Z,97518.81
2018-03-18T02:47:44.907Z,97518.70
2018-03-18T02:50:13.175Z,97516.56
2018-03-18T02:52:41.508Z,97518.88
2018-03-18T02:55:09.823Z,97512.91
2018-03-18T02:57:38.667Z,97515.33
2018-03-18T03:00:06.945Z,97516.09
2018-03-18T03:02:35.219Z,97517.41
2018-03-18T03:05:03.525Z,97512.38
2018-03-18T03:07:31.808Z,97504.60
2018-03-18T03:10:00.108Z,97501.06
2018-03-18T03:12:28.389Z,97501.86
2018-03-18T03:14:56.731Z,97499.78
2018-03-18T03:17:25.008Z,97503.55
2018-03-18T03:19:53.319Z,97502.47
2018-03-18T03:22:21.630Z,97502.27
2018-03-18T03:24:49.944Z,97504.39
2018-03-18T03:27:18.223Z,97507.17
2018-03-18T03:29:46.580Z,97504.91
2018-03-18T03:32:14.883Z,97514.60
2018-03-18T03:34:43.171Z,97516.69
2018-03-18T03:37:11.468Z,97510.88
2018-03-18T03:39:39.729Z,97506.82
2018-03-18T03:42:08.046Z,97507.31
2018-03-18T03:44:36.347Z,97518.13
2018-03-18T03:47:06.106Z,97515.53
2018-03-18T03:49:34.384Z,97511.83
2018-03-18T03:52:02.708Z,97514.73
2018-03-18T03:54:30.979Z,97508.07
2018-03-18T03:56:59.268Z,97508.75
2018-03-18T03:59:27.573Z,97500.95
2018-03-18T04:01:55.865Z,97505.14
2018-03-18T04:04:24.186Z,97509.39
2018-03-18T04:06:52.483Z,97500.67
2018-03-18T04:09:20.786Z,97499.73
2018-03-18T04:11:49.066Z,97503.83
2018-03-18T04:14:17.361Z,97495.05
2018-03-18T04:16:45.670Z,97504.86
2018-03-18T04:19:13.984Z,97507.09
2018-03-18T04:21:42.268Z,97504.00
2018-03-18T04:24:10.613Z,97508.36
2018-03-18T04:26:38.923Z,97507.25
2018-03-18T04:29:07.183Z,97504.22
2018-03-18T04:31:35.603Z,97504.34
2018-03-18T04:34:04.800Z,97514.08
2018-03-18T04:36:33.107Z,97512.70
2018-03-18T04:39:01.386Z,97508.73
2018-03-18T04:41:29.699Z,97507.78
2018-03-18T04:43:58.009Z,97511.95
2018-03-18T04:46:26.319Z,97511.84
2018-03-18T04:48:54.586Z,97518.94
2018-03-18T04:51:22.852Z,97514.60
2018-03-18T04:53:51.161Z,97508.64
2018-03-18T04:56:19.465Z,97516.64
2018-03-18T04:58:47.783Z,97509.81
2018-03-18T05:01:16.049Z,97517.64
2018-03-18T05:03:44.351Z,97517.54
2018-03-18T05:06:12.667Z,97521.36
2018-03-18T05:08:40.964Z,97526.31
2018-03-18T05:11:09.235Z,97514.38
2018-03-18T05:13:37.532Z,97524.27
2018-03-18T05:16:05.840Z,97520.80
2018-03-18T05:18:34.106Z,97516.95
2018-03-18T05:21:02.426Z,97528.84
2018-03-18T05:23:30.683Z,97522.37
2018-03-18T05:25:59.004Z,97530.94
2018-03-18T05:28:27.287Z,97530.47
2018-03-18T05:30:55.596Z,97535.59
2018-03-18T05:33:23.897Z,97534.30
2018-03-18T05:35:52.186Z,97544.95
2018-03-18T05:38:20.474Z,97542.42
2018-03-18T05:40:48.768Z,97545.09
2018-03-18T05:43:17.078Z,97549.47
2018-03-18T05:45:46.019Z,97539.17
2018-03-18T05:48:14.343Z,97559.84
2018-03-18T05:50:42.615Z,97561.16
2018-03-18T05:53:10.938Z,97561.19
2018-03-18T05:55:39.227Z,97561.13
2018-03-18T05:58:07.497Z,97552.96
2018-03-18T06:00:35.805Z,97572.72
2018-03-18T06:03:04.079Z,97569.59
2018-03-18T06:05:32.376Z,97572.02
2018-03-18T06:08:00.867Z,97575.57
2018-03-18T06:10:29.178Z,97574.00
2018-03-18T06:12:57.425Z,97575.56
2018-03-18T06:15:25.683Z,97576.41
2018-03-18T06:17:54.004Z,97573.88
2018-03-18T06:20:22.816Z,97580.00
2018-03-18T06:22:51.124Z,97576.17
2018-03-18T06:25:19.532Z,97583.98
2018-03-18T06:27:47.833Z,97592.82
2018-03-18T06:30:16.077Z,97586.55
2018-03-18T06:32:44.382Z,97584.81
2018-03-18T06:35:12.676Z,97587.69
2018-03-18T06:37:40.996Z,97595.70
2018-03-18T06:40:09.288Z,97588.66
2018-03-18T06:42:37.804Z,97595.09
2018-03-18T06:45:06.095Z,97591.35
2018-03-18T06:47:34.369Z,97598.31
2018-03-18T06:50:03.782Z,97593.69
2018-03-18T06:52:32.062Z,97603.62
2018-03-18T06:55:00.353Z,97603.95
2018-03-18T06:57:28.746Z,97606.84
2018-03-18T06:59:57.042Z,97606.38
2018-03-18T07:02:25.386Z,97602.16
2018-03-18T07:04:53.649Z,97605.84
2018-03-18T07:07:21.981Z,97602.26
2018-03-18T07:09:50.271Z,97595.51
2018-03-18T07:12:18.592Z,97596.97
2018-03-18T07:14:47.509Z,97608.47
2018-03-18T07:17:15.797Z,97623.66
2018-03-18T07:19:44.059Z,97620.06
2018-03-18T07:22:12.382Z,97621.80
2018-03-18T07:24:40.988Z,97622.48
2018-03-18T07:27:09.244Z,97623.13
2018-03-18T07:29:37.567Z,97629.19
2018-03-18T07:32:05.832Z,97622.11
2018-03-18T07:34:34.132Z,97623.39
2018-03-18T07:37:02.419Z,97631.73
2018-03-18T07:39:30.693Z,97634.96
2018-03-18T07:41:58.992Z,97623.92
2018-03-18T07:44:27.262Z,97637.12
2018-03-18T07:46:55.879Z,97631.23
2018-03-18T07:49:24.156Z,97632.30
2018-03-18T07:51:52.460Z,97645.00
2018-03-18T07:54:20.716Z,97639.13
2018-03-18T07:56:49.061Z,97641.60
2018-03-18T07:59:17.327Z,97641.55
2018-03-18T08:01:45.637Z,97651.01
2018-03-18T08:04:13.919Z,97651.97
2018-03-18T08:06:42.203Z,97647.98
2018-03-18T08:09:10.463Z,97656.33
2018-03-18T08:11:38.724Z,97659.59
2018-03-18T08:14:07.076Z,97660.11
2018-03-18T08:16:35.311Z,97665.04
2018-03-18T08:19:03.588Z,97665.50
2018-03-18T08:21:31.926Z,97658.42
2018-03-18T08:24:00.201Z,97666.53
2018-03-18T08:26:28.489Z,97678.09
2018-03-18T08:28:56.765Z,97670.82
2018-03-18T08:31:25.044Z,97675.51
2018-03-18T08:33:53.340Z,97676.20
2018-03-18T08:36:21.671Z,97678.17
2018-03-18T08:38:49.956Z,97683.13
2018-03-18T08:41:18.269Z,97683.02
2018-03-18T08:43:46.705Z,97681.42
2018-03-18T08:46:15.369Z,97686.73
2018-03-18T08:48:44.309Z,97683.76
2018-03-18T08:51:12.697Z,97692.00
2018-03-18T08:53:40.990Z,97688.72
2018-03-18T08:56:09.267Z,97692.45
2018-03-18T08:58:38.367Z,97704.18
2018-03-18T09:01:06.645Z,97701.41
2018-03-18T09:03:34.927Z,97700.86
2018-03-18T09:06:03.203Z,97707.03
2018-03-18T09:08:31.499Z,97707.20
2018-03-18T09:10:59.795Z,97707.09
2018-03-18T09:13:28.101Z,97707.09
2018-03-18T09:15:56.384Z,97711.04
2018-03-18T09:18:24.689Z,97705.00
2018-03-18T09:20:53.346Z,97704.94
2018-03-18T09:23:21.643Z,97703.80
2018-03-18T09:25:49.978Z,97711.28
2018-03-18T09:28:18.776Z,97707.20
2018-03-18T09:30:47.115Z,97701.21
2018-03-18T09:33:15.387Z,97716.17
2018-03-18T09:35:43.779Z,97713.22
2018-03-18T09:38:12.034Z,97725.28
2018-03-18T09:40:40.380Z,97720.06
2018-03-18T09:43:08.700Z,97719.30
2018-03-18T09:45:37.006Z,97725.97
2018-03-18T09:48:05.384Z,97725.72
2018-03-18T09:50:33.696Z,97724.35
2018-03-18T09:53:02.028Z,97730.00
2018-03-18T09:55:30.260Z,97728.55
2018-03-18T09:57:58.579Z,97734.89
2018-03-18T10:00:26.867Z,97726.92
2018-03-18T10:02:55.256Z,97733.87
2018-03-18T10:05:23.519Z,97739.45
2018-03-18T10:07:51.853Z,97729.51
2018-03-18T10:10:20.124Z,97733.37
2018-03-18T10:12:48.435Z,97726.38
2018-03-18T10:15:16.741Z,97728.64
2018-03-18T10:17:45.008Z,97735.23
2018-03-18T10:20:13.343Z,97729.31
2018-03-18T10:22:41.553Z,97734.83
2018-03-18T10:25:09.855Z,97734.30
2018-03-18T10:27:38.115Z,97733.80
2018-03-18T10:30:06.604Z,97743.86
2018-03-18T10:32:34.887Z,97735.38
2018-03-18T10:35:03.175Z,97733.28
2018-03-18T10:37:31.506Z,97738.03
2018-03-18T10:39:59.779Z,97731.98
2018-03-18T10:42:28.073Z,97737.72
2018-03-18T10:44:56.344Z,97730.14
2018-03-18T10:47:25.550Z,97731.02
2018-03-18T10:49:54.175Z,97730.30
2018-03-18T10:52:22.463Z,97733.73
2018-03-18T10:54:50.778Z,97734.73
2018-03-18T10:57:19.980Z,97736.36
2018-03-18T10:59:48.274Z,97734.86
2018-03-18T11:02:17.409Z,97746.17
2018-03-18T11:04:45.849Z,97740.62
2018-03-18T11:07:14.145Z,97748.23
2018-03-18T11:09:42.450Z,97745.67
2018-03-18T11:12:10.824Z,97750.59
2018-03-18T11:14:39.812Z,97747.94
2018-03-18T11:17:08.120Z,97751.73
2018-03-18T11:19:36.417Z,97748.53
2018-03-18T11:22:05.624Z,97753.19
2018-03-18T11:24:34.105Z,97748.03
2018-03-18T11:27:06.403Z,97751.53
2018-03-18T11:29:34.674Z,97751.98
2018-03-18T11:32:02.993Z,97746.55
2018-03-18T11:34:31.848Z,97746.51
2018-03-18T11:37:00.606Z,97744.19
2018-03-18T11:39:28.970Z,97742.05
2018-03-18T11:41:57.264Z,97741.78
2018-03-18T11:44:25.656Z,97746.11
2018-03-18T11:46:53.964Z,97743.56
2018-03-18T11:49:22.316Z,97735.34
2018-03-18T11:51:50.586Z,97742.55
2018-03-18T11:54:18.925Z,97740.38
2018-03-18T11:56:48.064Z,97747.30
2018-03-18T11:59:16.464Z,97756.35
2018-03-18T12:01:44.897Z,97761.17
2018-03-18T12:04:13.205Z,97757.38
2018-03-18T12:06:41.504Z,97759.86
2018-03-18T12:09:09.823Z,97758.87
2018-03-18T12:11:38.111Z,97771.05
2018-03-18T12:14:06.406Z,97765.59
2018-03-18T12:16:35.951Z,97772.22
2018-03-18T12:19:05.178Z,97769.13
2018-03-18T12:21:33.508Z,97773.81
2018-03-18T12:24:01.781Z,97779.20
2018-03-18T12:26:30.068Z,97774.48
2018-03-18T12:28:58.329Z,97771.66
2018-03-18T12:31:26.625Z,97772.84
2018-03-18T12:33:55.029Z,97776.50
2018-03-18T12:36:23.351Z,97783.23
2018-03-18T12:38:51.616Z,97781.63
2018-03-18T12:41:19.920Z,97781.53
2018-03-18T12:43:48.213Z,97775.87
2018-03-18T12:46:16.467Z,97770.37
2018-03-18T12:48:44.763Z,97776.08
2018-03-18T12:51:13.112Z,97771.00
2018-03-18T12:53:41.416Z,97771.39
2018-03-18T12:56:10.528Z,97773.52
2018-03-18T12:58:38.975Z,97777.21
2018-03-18T13:01:07.314Z,97782.36
2018-03-18T13:03:35.631Z,97769.41
2018-03-18T13:06:04.838Z,97771.73
2018-03-18T13:08:33.178Z,97774.06
2018-03-18T13:11:01.492Z,97767.21
2018-03-18T13:13:29.765Z,97769.08
2018-03-18T13:15:58.084Z,97776.82
2018-03-18T13:18:26.383Z,97770.12
2018-03-18T13:20:54.677Z,97778.41
2018-03-18T13:23:22.962Z,97771.95
2018-03-18T13:25:51.241Z,97767.89
2018-03-18T13:28:19.546Z,97779.80
2018-03-18T13:30:47.885Z,97781.53
2018-03-18T13:33:16.176Z,97780.26
2018-03-18T13:35:44.655Z,97776.95
2018-03-18T13:38:12.921Z,97784.31
2018-03-18T13:40:41.230Z,97777.30
2018-03-18T13:43:09.518Z,97786.35
2018-03-18T13:45:38.792Z,97785.84
2018-03-18T13:48:07.082Z,97783.75
2018-03-18T13:50:35.361Z,97790.70
2018-03-18T13:53:03.635Z,97790.48
2018-03-18T13:55:31.934Z,97784.52
2018-03-18T13:58:00.210Z,97778.71
2018-03-18T14:00:28.849Z,97774.73
2018-03-18T14:02:57.305Z,97763.92
2018-03-18T14:05:25.777Z,97779.80
2018-03-18T14:07:54.154Z,97771.91
2018-03-18T14:10:22.522Z,97771.83
2018-03-18T14:12:50.791Z,97785.61
2018-03-18T14:15:19.097Z,97784.81
2018-03-18T14:17:47.356Z,97780.75
2018-03-18T14:20:15.728Z,97782.59
2018-03-18T14:22:44.085Z,97773.38
2018-03-18T14:27:46.788Z,97794.14
2018-03-18T14:30:15.163Z,97789.98
2018-03-18T14:32:43.413Z,97790.89
2018-03-18T14:35:11.742Z,97788.98
2018-03-18T14:37:40.119Z,97797.50
2018-03-18T14:40:08.442Z,97800.45
2018-03-18T14:42:36.728Z,97801.73
2018-03-18T14:45:05.640Z,97808.52
2018-03-18T14:47:33.911Z,97796.53
2018-03-18T14:50:02.299Z,97798.19
2018-03-18T14:52:30.610Z,97808.28
2018-03-18T14:54:58.892Z,97798.59
2018-03-18T14:57:27.216Z,97790.23
2018-03-18T14:59:55.507Z,97815.20
2018-03-18T15:02:23.813Z,97803.52
2018-03-18T15:04:52.144Z,97810.32
2018-03-18T15:07:20.441Z,97810.07
2018-03-18T15:09:48.771Z,97810.45
2018-03-18T15:12:17.126Z,97818.78
2018-03-18T15:14:45.388Z,97826.08
2018-03-18T15:17:13.801Z,97814.51
2018-03-18T15:19:42.056Z,97826.45
2018-03-18T15:22:10.391Z,97826.75
2018-03-18T15:24:38.712Z,97828.28
2018-03-18T15:27:06.988Z,97839.17
2018-03-18T15:29:35.280Z,97848.12
2018-03-18T15:32:04.590Z,97849.95
2018-03-18T15:34:32.870Z,97851.28
2018-03-18T15:37:01.481Z,97845.58
2018-03-18T15:39:29.851Z,97841.73
2018-03-18T15:41:58.244Z,97842.56
2018-03-18T15:44:26.617Z,97840.34
2018-03-18T15:46:55.178Z,97843.98
2018-03-18T15:49:23.482Z,97846.45
2018-03-18T15:51:51.781Z,97835.80
2018-03-18T15:54:20.089Z,97850.28
2018-03-18T15:56:49.235Z,97840.31
2018-03-18T15:59:17.744Z,97840.50
2018-03-18T16:01:46.295Z,97845.89
2018-03-18T16:04:14.665Z,97846.25
2018-03-18T16:06:43.322Z,97851.75
2018-03-18T16:09:11.740Z,97849.97
2018-03-18T16:11:40.020Z,97855.65
2018-03-18T16:14:08.339Z,97865.75
2018-03-18T16:16:36.634Z,97863.42
2018-03-18T16:19:04.995Z,97860.38
2018-03-18T16:21:33.270Z,97877.89
2018-03-18T16:24:01.575Z,97879.03
2018-03-18T16:26:29.960Z,97880.09
2018-03-18T16:29:10.024Z,97877.97
2018-03-18T16:31:38.426Z,97879.97
2018-03-18T16:34:06.880Z,97883.41
2018-03-18T16:36:35.129Z,97888.33
2018-03-18T16:39:03.430Z,97885.13
2018-03-18T16:41:31.806Z,97891.09
2018-03-18T16:44:00.117Z,97887.20
2018-03-18T16:46:28.419Z,97888.89
2018-03-18T16:48:56.667Z,97900.23
2018-03-18T16:51:25.048Z,97906.88
2018-03-18T16:53:53.413Z,97901.92
2018-03-18T16:56:21.704Z,97911.00
2018-03-18T16:58:49.980Z,97912.09
2018-03-18T17:01:18.310Z,97916.50
2018-03-18T17:03:46.590Z,97911.36
2018-03-18T17:06:15.793Z,97904.37
2018-03-18T17:08:44.152Z,97912.66
2018-03-18T17:11:12.579Z,97916.78
2018-03-18T17:13:40.931Z,97917.75
2018-03-18T17:16:09.203Z,97922.56
2018-03-18T17:18:37.496Z,97930.92
2018-03-18T17:21:05.825Z,97933.13
2018-03-18T17:23:34.096Z,97938.27
2018-03-18T17:26:02.399Z,97942.19
2018-03-18T17:28:31.369Z,97937.75
2018-03-18T17:30:59.673Z,97947.84
2018-03-18T17:33:28.020Z,97957.53
2018-03-18T17:35:56.283Z,97957.15
2018-03-18T17:38:24.558Z,97955.17
2018-03-18T17:40:52.874Z,97961.95
2018-03-18T17:43:21.115Z,97965.78
2018-03-18T17:46:01.229Z,97978.36
2018-03-18T17:48:41.335Z,97968.22
2018-03-18T17:51:21.832Z,97975.23
2018-03-18T17:54:01.910Z,97986.84
2018-03-18T17:56:41.959Z,97985.14
2018-03-18T17:59:10.225Z,97989.84
2018-03-18T18:01:38.623Z,97989.09
2018-03-18T18:04:06.873Z,97990.78
2018-03-18T18:06:35.204Z,97991.13
2018-03-18T18:09:04.438Z,98004.11
2018-03-18T18:11:32.756Z,98002.98
2018-03-18T18:14:01.193Z,98000.68
2018-03-18T18:16:29.426Z,98009.61
2018-03-18T18:18:57.704Z,98002.22
2018-03-18T18:21:26.476Z,98009.67
2018-03-18T18:23:54.944Z,98002.91
2018-03-18T18:26:23.250Z,98008.88
2018-03-18T18:28:51.565Z,98011.02
2018-03-18T18:31:19.840Z,98012.15
2018-03-18T18:33:48.121Z,98022.28
2018-03-18T18:36:16.435Z,98023.17
2018-03-18T18:38:44.767Z,98008.64
2018-03-18T18:41:13.027Z,98022.28
2018-03-18T18:43:41.304Z,98018.63
2018-03-18T18:46:09.609Z,98032.13
2018-03-18T18:48:37.872Z,98024.66
2018-03-18T18:51:06.282Z,98031.31
2018-03-18T18:53:34.524Z,98025.89
2018-03-18T18:56:02.813Z,98030.81
2018-03-18T18:58:31.081Z,98034.31
2018-03-18T19:00:59.352Z,98033.58
2018-03-18T19:03:27.611Z,98032.78
2018-03-18T19:05:55.888Z,98032.78
2018-03-18T19:08:24.140Z,98040.21
2018-03-18T19:10:52.430Z,98040.84
2018-03-18T19:13:20.746Z,98051.61
2018-03-18T19:15:49.032Z,98046.05
2018-03-18T19:18:17.313Z,98041.02
2018-03-18T19:20:45.672Z,98052.95
2018-03-18T19:23:13.982Z,98043.95
2018-03-18T19:25:42.273Z,98041.59
2018-03-18T19:28:10.563Z,98045.95
2018-03-18T19:30:38.850Z,98045.45
2018-03-18T19:33:07.084Z,98048.34
2018-03-18T19:35:35.395Z,98049.98
2018-03-18T19:38:03.662Z,98045.39
2018-03-18T19:40:31.960Z,98043.19
2018-03-18T19:43:00.285Z,98045.91
2018-03-18T19:45:28.598Z,98040.92
2018-03-18T19:47:56.910Z,98048.39
2018-03-18T19:50:25.229Z,98049.31
2018-03-18T19:52:53.531Z,98053.31
2018-03-18T19:55:21.828Z,98048.62
2018-03-18T19:57:50.203Z,97995.59
2018-03-18T20:00:18.484Z,98057.08
2018-03-18T20:02:46.800Z,98060.23
2018-03-18T20:05:15.094Z,98057.87
2018-03-18T20:07:43.495Z,98060.55
2018-03-18T20:10:11.729Z,98056.92
2018-03-18T20:12:40.052Z,98069.41
2018-03-18T20:15:08.320Z,98068.14
2018-03-18T20:17:36.620Z,98069.31
2018-03-18T20:20:04.875Z,98071.35
2018-03-18T20:22:33.141Z,98070.22
2018-03-18T20:25:01.747Z,98071.85
2018-03-18T20:27:30.023Z,98075.69
2018-03-18T20:29:58.276Z,98063.16
2018-03-18T20:32:26.552Z,98067.69
2018-03-18T20:34:54.845Z,98069.90
2018-03-18T20:37:23.124Z,98079.81
2018-03-18T20:39:51.376Z,98070.97
2018-03-18T20:42:19.694Z,98075.16
2018-03-18T20:44:47.986Z,98077.34
2018-03-18T20:47:16.283Z,98080.17
2018-03-18T20:49:44.569Z,98084.73
2018-03-18T20:52:12.841Z,98087.28
2018-03-18T20:54:41.135Z,98088.81
2018-03-18T20:57:09.459Z,98079.87
2018-03-18T20:59:37.747Z,98087.83
2018-03-18T21:02:05.991Z,98089.34
2018-03-18T21:04:34.259Z,98080.21
2018-03-18T21:07:02.503Z,98088.48
2018-03-18T21:09:30.825Z,98092.06
2018-03-18T21:11:59.099Z,98106.39
2018-03-18T21:14:27.379Z,98098.97
2018-03-18T21:16:55.691Z,98097.05
2018-03-18T21:19:23.962Z,98103.12
2018-03-18T21:21:52.224Z,98098.65
2018-03-18T21:24:20.614Z,98096.39
2018-03-18T21:26:48.866Z,98097.27
2018-03-18T21:29:17.196Z,98099.73
2018-03-18T21:31:45.444Z,98104.01
2018-03-18T21:34:13.746Z,98102.41
2018-03-18T21:36:42.008Z,98105.73
2018-03-18T21:39:10.273Z,98105.69
2018-03-18T21:41:38.600Z,98110.66
2018-03-18T21:44:06.871Z,98106.51
2018-03-18T21:46:35.167Z,98113.33
2018-03-18T21:49:03.430Z,98110.50
2018-03-18T21:51:32.440Z,98106.23
2018-03-18T21:54:00.733Z,98101.34
2018-03-18T21:56:29.183Z,98108.88
2018-03-18T21:58:57.429Z,98101.44
2018-03-18T22:01:25.740Z,98110.10
2018-03-18T22:03:54.036Z,98108.98
2018-03-18T22:06:22.360Z,98108.53
2018-03-18T22:08:50.757Z,98108.98
2018-03-18T22:11:19.039Z,98106.88
2018-03-18T22:13:47.296Z,98106.85
2018-03-18T22:16:15.588Z,98113.09
2018-03-18T22:18:43.867Z,98112.64
2018-03-18T22:21:12.482Z,98115.80
2018-03-18T22:23:40.742Z,98122.12
2018-03-18T22:26:09.345Z,98122.59
2018-03-18T22:28:37.623Z,98118.63
2018-03-18T22:31:05.932Z,98119.13
2018-03-18T22:33:34.175Z,98121.81
2018-03-18T22:36:02.459Z,98124.81
2018-03-18T22:38:30.731Z,98125.04
2018-03-18T22:40:59.035Z,98128.19
2018-03-18T22:43:27.323Z,98122.87
2018-03-18T22:45:55.606Z,98129.73
2018-03-18T22:48:23.904Z,98128.59
2018-03-18T22:50:52.160Z,98120.59
2018-03-18T22:53:20.469Z,98126.44
2018-03-18T22:55:48.756Z,98127.63
2018-03-18T22:58:17.055Z,98126.66
2018-03-18T23:00:45.304Z,98110.31
2018-03-18T23:03:14.378Z,98125.44
2018-03-18T23:05:42.644Z,98114.45
2018-03-18T23:08:10.953Z,98121.47
2018-03-18T23:10:39.234Z,98126.48
2018-03-18T23:13:07.543Z,98124.20
2018-03-18T23:15:35.816Z,98117.93
2018-03-18T23:18:04.094Z,98126.63
2018-03-18T23:20:32.397Z,98130.68
2018-03-18T23:23:00.667Z,98128.88
2018-03-18T23:25:28.935Z,98128.23
2018-03-18T23:27:57.280Z,98123.94
2018-03-18T23:30:25.545Z,98126.06
2018-03-18T23:32:53.823Z,98121.22
2018-03-18T23:35:22.178Z,98121.81
2018-03-18T23:37:50.528Z,98124.15
2018-03-18T23:40:18.819Z,98125.77
2018-03-18T23:42:47.079Z,98126.20
2018-03-18T23:45:15.375Z,98126.14
2018-03-18T23:47:43.647Z,98124.59
2018-03-18T23:50:11.959Z,98112.50
2018-03-18T23:52:40.218Z,98132.23
2018-03-18T23:55:08.512Z,98131.16
2018-03-18T23:57:36.790Z,98133.23
